sensor_id;sensor_type;location;lat;lon;timestamp;pressure;altitude;pressure_sealevel;temperature;humidity
22031;BME280;11179;52.106;21.024;2022-08-19T00:00:04;100101.34;;;21.31;65.38
22031;BME280;11179;52.106;21.024;2022-08-19T00:02:30;100098.25;;;21.24;65.25
22031;BME280;11179;52.106;21.024;2022-08-19T00:04:55;100101.56;;;21.17;65.05
22031;BME280;11179;52.106;21.024;2022-08-19T00:07:20;100102.91;;;21.11;65.06
22031;BME280;11179;52.106;21.024;2022-08-19T00:09:46;100097.03;;;21.04;65.25
22031;BME280;11179;52.106;21.024;2022-08-19T00:12:12;100093.47;;;20.95;65.40
22031;BME280;11179;52.106;21.024;2022-08-19T00:14:38;100094.00;;;20.88;65.68
22031;BME280;11179;52.106;21.024;2022-08-19T00:17:05;100083.34;;;20.82;65.90
22031;BME280;11179;52.106;21.024;2022-08-19T00:19:32;100096.94;;;20.83;65.85
22031;BME280;11179;52.106;21.024;2022-08-19T00:21:58;100096.78;;;20.80;65.64
22031;BME280;11179;52.106;21.024;2022-08-19T00:24:24;100095.47;;;20.77;65.77
22031;BME280;11179;52.106;21.024;2022-08-19T00:26:50;100099.25;;;20.72;65.88
22031;BME280;11179;52.106;21.024;2022-08-19T00:29:18;100098.78;;;20.70;66.30
22031;BME280;11179;52.106;21.024;2022-08-19T00:31:44;100105.66;;;20.64;66.09
22031;BME280;11179;52.106;21.024;2022-08-19T00:34:10;100105.53;;;20.52;66.82
22031;BME280;11179;52.106;21.024;2022-08-19T00:36:37;100102.75;;;20.44;67.09
22031;BME280;11179;52.106;21.024;2022-08-19T00:39:03;100103.41;;;20.40;67.16
22031;BME280;11179;52.106;21.024;2022-08-19T00:41:29;100108.50;;;20.38;67.21
22031;BME280;11179;52.106;21.024;2022-08-19T00:44:11;100100.81;;;20.35;67.45
22031;BME280;11179;52.106;21.024;2022-08-19T00:46:39;100096.72;;;20.33;67.42
22031;BME280;11179;52.106;21.024;2022-08-19T00:49:11;100095.41;;;20.30;67.45
22031;BME280;11179;52.106;21.024;2022-08-19T00:51:39;100093.75;;;20.29;67.46
22031;BME280;11179;52.106;21.024;2022-08-19T00:54:06;100088.69;;;20.31;67.74
22031;BME280;11179;52.106;21.024;2022-08-19T00:56:32;100093.44;;;20.31;67.76
22031;BME280;11179;52.106;21.024;2022-08-19T00:58:58;100091.16;;;20.33;67.88
22031;BME280;11179;52.106;21.024;2022-08-19T01:01:24;100099.34;;;20.29;68.40
22031;BME280;11179;52.106;21.024;2022-08-19T01:03:50;100104.09;;;20.29;68.35
22031;BME280;11179;52.106;21.024;2022-08-19T01:06:15;100111.31;;;20.30;68.57
22031;BME280;11179;52.106;21.024;2022-08-19T01:08:41;100107.06;;;20.32;68.62
22031;BME280;11179;52.106;21.024;2022-08-19T01:11:07;100106.22;;;20.32;68.85
22031;BME280;11179;52.106;21.024;2022-08-19T01:13:34;100108.19;;;20.31;68.79
22031;BME280;11179;52.106;21.024;2022-08-19T01:16:05;100108.19;;;20.31;68.87
22031;BME280;11179;52.106;21.024;2022-08-19T01:18:32;100104.41;;;20.27;68.88
22031;BME280;11179;52.106;21.024;2022-08-19T01:21:06;100104.75;;;20.26;68.48
22031;BME280;11179;52.106;21.024;2022-08-19T01:23:32;100111.97;;;20.27;68.79
22031;BME280;11179;52.106;21.024;2022-08-19T01:26:22;100102.63;;;20.23;68.73
22031;BME280;11179;52.106;21.024;2022-08-19T01:28:51;100113.13;;;20.26;68.71
22031;BME280;11179;52.106;21.024;2022-08-19T01:31:20;100105.56;;;20.26;68.57
22031;BME280;11179;52.106;21.024;2022-08-19T01:33:48;100113.78;;;20.31;68.58
22031;BME280;11179;52.106;21.024;2022-08-19T01:36:21;100111.81;;;20.32;68.65
22031;BME280;11179;52.106;21.024;2022-08-19T01:38:48;100110.81;;;20.28;68.73
22031;BME280;11179;52.106;21.024;2022-08-19T01:41:14;100113.78;;;20.31;68.83
22031;BME280;11179;52.106;21.024;2022-08-19T01:43:40;100107.72;;;20.29;68.68
22031;BME280;11179;52.106;21.024;2022-08-19T01:46:06;100112.28;;;20.25;68.78
22031;BME280;11179;52.106;21.024;2022-08-19T01:48:40;100094.75;;;20.16;68.87
22031;BME280;11179;52.106;21.024;2022-08-19T01:51:06;100098.69;;;20.15;68.83
22031;BME280;11179;52.106;21.024;2022-08-19T01:53:33;100096.22;;;20.14;69.10
22031;BME280;11179;52.106;21.024;2022-08-19T01:55:58;100096.56;;;20.12;68.91
22031;BME280;11179;52.106;21.024;2022-08-19T01:58:33;100098.88;;;20.10;68.99
22031;BME280;11179;52.106;21.024;2022-08-19T02:01:02;100101.16;;;20.08;68.93
22031;BME280;11179;52.106;21.024;2022-08-19T02:03:28;100106.06;;;20.02;69.35
22031;BME280;11179;52.106;21.024;2022-08-19T02:05:59;100099.19;;;20.00;69.40
22031;BME280;11179;52.106;21.024;2022-08-19T02:08:26;100094.59;;;19.95;69.65
22031;BME280;11179;52.106;21.024;2022-08-19T02:10:52;100094.91;;;19.94;69.28
22031;BME280;11179;52.106;21.024;2022-08-19T02:13:18;100091.44;;;19.88;69.39
22031;BME280;11179;52.106;21.024;2022-08-19T02:15:44;100091.97;;;19.82;69.61
22031;BME280;11179;52.106;21.024;2022-08-19T02:18:09;100080.78;;;19.73;70.08
22031;BME280;11179;52.106;21.024;2022-08-19T02:20:36;100073.44;;;19.77;70.08
22031;BME280;11179;52.106;21.024;2022-08-19T02:23:02;100079.16;;;19.81;70.08
22031;BME280;11179;52.106;21.024;2022-08-19T02:25:27;100080.50;;;19.83;70.12
22031;BME280;11179;52.106;21.024;2022-08-19T02:27:53;100080.50;;;19.83;70.21
22031;BME280;11179;52.106;21.024;2022-08-19T02:30:19;100073.41;;;19.86;69.93
22031;BME280;11179;52.106;21.024;2022-08-19T02:32:45;100079.00;;;19.86;69.84
22031;BME280;11179;52.106;21.024;2022-08-19T02:35:13;100082.44;;;19.91;69.86
22031;BME280;11179;52.106;21.024;2022-08-19T02:37:39;100075.56;;;19.89;69.71
22031;BME280;11179;52.106;21.024;2022-08-19T02:40:23;100082.13;;;19.93;69.66
22031;BME280;11179;52.106;21.024;2022-08-19T02:42:49;100079.34;;;19.93;69.59
22031;BME280;11179;52.106;21.024;2022-08-19T02:45:14;100087.69;;;19.93;69.70
22031;BME280;11179;52.106;21.024;2022-08-19T02:47:40;100081.63;;;19.91;69.50
22031;BME280;11179;52.106;21.024;2022-08-19T02:50:06;100093.75;;;19.95;69.70
22031;BME280;11179;52.106;21.024;2022-08-19T02:52:32;100085.56;;;19.90;69.75
22031;BME280;11179;52.106;21.024;2022-08-19T02:54:58;100088.66;;;19.88;69.75
22031;BME280;11179;52.106;21.024;2022-08-19T02:57:24;100082.28;;;19.88;69.84
22031;BME280;11179;52.106;21.024;2022-08-19T02:59:50;100088.50;;;19.85;69.84
22031;BME280;11179;52.106;21.024;2022-08-19T03:02:16;100075.75;;;19.84;69.63
22031;BME280;11179;52.106;21.024;2022-08-19T03:04:41;100080.31;;;19.80;69.64
22031;BME280;11179;52.106;21.024;2022-08-19T03:07:07;100082.59;;;19.78;69.94
22031;BME280;11179;52.106;21.024;2022-08-19T03:09:33;100080.47;;;19.75;69.73
22031;BME280;11179;52.106;21.024;2022-08-19T03:12:02;100085.88;;;19.80;69.97
22031;BME280;11179;52.106;21.024;2022-08-19T03:14:30;100083.91;;;19.80;69.99
22031;BME280;11179;52.106;21.024;2022-08-19T03:16:56;100078.50;;;19.75;69.90
22031;BME280;11179;52.106;21.024;2022-08-19T03:19:22;100073.56;;;19.72;70.31
22031;BME280;11179;52.106;21.024;2022-08-19T03:21:48;100079.66;;;19.65;70.20
22031;BME280;11179;52.106;21.024;2022-08-19T03:24:14;100078.50;;;19.66;70.40
22031;BME280;11179;52.106;21.024;2022-08-19T03:26:42;100083.56;;;19.64;70.56
22031;BME280;11179;52.106;21.024;2022-08-19T03:29:08;100083.06;;;19.62;70.67
22031;BME280;11179;52.106;21.024;2022-08-19T03:31:36;100086.03;;;19.66;70.37
22031;BME280;11179;52.106;21.024;2022-08-19T03:34:02;100083.25;;;19.75;70.60
22031;BME280;11179;52.106;21.024;2022-08-19T03:36:28;100088.34;;;19.81;70.35
22031;BME280;11179;52.106;21.024;2022-08-19T03:38:58;100095.38;;;19.87;70.33
22031;BME280;11179;52.106;21.024;2022-08-19T03:41:30;100091.13;;;19.90;70.17
22031;BME280;11179;52.106;21.024;2022-08-19T03:43:56;100093.91;;;19.90;70.10
22031;BME280;11179;52.106;21.024;2022-08-19T03:46:25;100089.00;;;19.87;70.32
22031;BME280;11179;52.106;21.024;2022-08-19T03:48:52;100098.16;;;19.87;70.10
22031;BME280;11179;52.106;21.024;2022-08-19T03:51:30;100104.22;;;19.98;70.17
22031;BME280;11179;52.106;21.024;2022-08-19T03:53:57;100110.19;;;20.05;70.06
22031;BME280;11179;52.106;21.024;2022-08-19T03:56:23;100105.59;;;20.09;69.91
22031;BME280;11179;52.106;21.024;2022-08-19T03:58:51;100104.28;;;20.15;69.49
22031;BME280;11179;52.106;21.024;2022-08-19T04:01:20;100107.03;;;20.24;69.68
22031;BME280;11179;52.106;21.024;2022-08-19T04:03:47;100111.47;;;20.33;69.30
22031;BME280;11179;52.106;21.024;2022-08-19T04:06:39;100104.72;;;20.43;69.48
22031;BME280;11179;52.106;21.024;2022-08-19T04:09:07;100109.13;;;20.53;68.96
22031;BME280;11179;52.106;21.024;2022-08-19T04:11:39;100104.69;;;20.69;68.60
22031;BME280;11179;52.106;21.024;2022-08-19T04:14:08;100098.94;;;20.74;68.36
22031;BME280;11179;52.106;21.024;2022-08-19T04:16:34;100105.16;;;20.88;68.06
22031;BME280;11179;52.106;21.024;2022-08-19T04:19:01;100087.38;;;21.01;67.79
22031;BME280;11179;52.106;21.024;2022-08-19T04:21:27;100099.81;;;21.13;67.71
22031;BME280;11179;52.106;21.024;2022-08-19T04:23:54;100102.03;;;21.28;67.64
22031;BME280;11179;52.106;21.024;2022-08-19T04:26:28;100099.13;;;21.54;66.82
22031;BME280;11179;52.106;21.024;2022-08-19T04:28:58;100101.06;;;21.83;65.93
22031;BME280;11179;52.106;21.024;2022-08-19T04:31:27;100102.41;;;22.18;65.16
22031;BME280;11179;52.106;21.024;2022-08-19T04:33:54;100102.88;;;22.41;64.55
22031;BME280;11179;52.106;21.024;2022-08-19T04:36:24;100099.94;;;22.70;63.61
22031;BME280;11179;52.106;21.024;2022-08-19T04:38:53;100097.03;;;22.91;62.86
22031;BME280;11179;52.106;21.024;2022-08-19T04:41:19;100100.38;;;23.17;62.74
22031;BME280;11179;52.106;21.024;2022-08-19T04:44:05;100103.63;;;23.44;61.73
22031;BME280;11179;52.106;21.024;2022-08-19T04:46:31;100105.53;;;23.28;60.88
22031;BME280;11179;52.106;21.024;2022-08-19T04:48:58;100098.50;;;23.09;61.24
22031;BME280;11179;52.106;21.024;2022-08-19T04:51:24;100104.91;;;22.98;61.70
22031;BME280;11179;52.106;21.024;2022-08-19T04:53:50;100101.00;;;22.90;61.52
22031;BME280;11179;52.106;21.024;2022-08-19T04:56:18;100118.53;;;22.87;61.38
22031;BME280;11179;52.106;21.024;2022-08-19T04:58:45;100111.03;;;22.79;61.38
22031;BME280;11179;52.106;21.024;2022-08-19T05:01:17;100107.06;;;22.80;61.72
22031;BME280;11179;52.106;21.024;2022-08-19T05:03:43;100111.22;;;22.95;61.63
22031;BME280;11179;52.106;21.024;2022-08-19T05:06:11;100104.56;;;22.99;61.18
22031;BME280;11179;52.106;21.024;2022-08-19T05:08:39;100109.03;;;23.12;61.14
22031;BME280;11179;52.106;21.024;2022-08-19T05:11:13;100103.66;;;23.32;60.95
22031;BME280;11179;52.106;21.024;2022-08-19T05:13:39;100103.53;;;23.40;60.77
22031;BME280;11179;52.106;21.024;2022-08-19T05:16:04;100095.00;;;23.73;60.41
22031;BME280;11179;52.106;21.024;2022-08-19T05:18:30;100100.81;;;23.92;59.95
22031;BME280;11179;52.106;21.024;2022-08-19T05:21:17;100103.34;;;23.98;59.50
22031;BME280;11179;52.106;21.024;2022-08-19T05:24:02;100108.41;;;23.92;59.03
22031;BME280;11179;52.106;21.024;2022-08-19T05:26:28;100118.44;;;23.93;59.10
22031;BME280;11179;52.106;21.024;2022-08-19T05:28:54;100109.56;;;23.91;59.32
22031;BME280;11179;52.106;21.024;2022-08-19T05:31:21;100110.84;;;23.94;58.80
22031;BME280;11179;52.106;21.024;2022-08-19T05:33:47;100103.19;;;23.78;58.99
22031;BME280;11179;52.106;21.024;2022-08-19T05:36:12;100116.97;;;23.71;59.24
22031;BME280;11179;52.106;21.024;2022-08-19T05:38:38;100114.94;;;23.84;59.42
22031;BME280;11179;52.106;21.024;2022-08-19T05:41:11;100123.63;;;24.19;58.47
22031;BME280;11179;52.106;21.024;2022-08-19T05:43:37;100124.97;;;24.37;57.93
22031;BME280;11179;52.106;21.024;2022-08-19T05:46:07;100131.31;;;24.62;57.71
22031;BME280;11179;52.106;21.024;2022-08-19T05:48:34;100135.50;;;24.68;57.11
22031;BME280;11179;52.106;21.024;2022-08-19T05:51:07;100130.50;;;24.61;57.32
22031;BME280;11179;52.106;21.024;2022-08-19T05:53:34;100128.88;;;24.60;57.16
22031;BME280;11179;52.106;21.024;2022-08-19T05:56:08;100127.44;;;24.39;57.35
22031;BME280;11179;52.106;21.024;2022-08-19T05:58:35;100117.22;;;24.18;57.99
22031;BME280;11179;52.106;21.024;2022-08-19T06:01:00;100119.94;;;24.03;58.16
22031;BME280;11179;52.106;21.024;2022-08-19T06:03:30;100113.31;;;23.95;58.55
22031;BME280;11179;52.106;21.024;2022-08-19T06:05:57;100105.25;;;23.94;58.73
22031;BME280;11179;52.106;21.024;2022-08-19T06:08:24;100104.56;;;23.97;58.98
22031;BME280;11179;52.106;21.024;2022-08-19T06:10:49;100107.34;;;23.97;58.73
22031;BME280;11179;52.106;21.024;2022-08-19T06:13:15;100110.38;;;23.91;58.69
22031;BME280;11179;52.106;21.024;2022-08-19T06:15:40;100109.25;;;23.80;59.06
22031;BME280;11179;52.106;21.024;2022-08-19T06:18:09;100115.53;;;23.89;59.27
22031;BME280;11179;52.106;21.024;2022-08-19T06:20:34;100109.88;;;24.02;59.11
22031;BME280;11179;52.106;21.024;2022-08-19T06:22:59;100121.38;;;23.97;59.14
22031;BME280;11179;52.106;21.024;2022-08-19T06:25:25;100129.75;;;24.09;59.14
22031;BME280;11179;52.106;21.024;2022-08-19T06:27:50;100119.66;;;24.20;58.78
22031;BME280;11179;52.106;21.024;2022-08-19T06:30:15;100129.69;;;24.33;58.74
22031;BME280;11179;52.106;21.024;2022-08-19T06:32:41;100132.56;;;24.49;58.28
22031;BME280;11179;52.106;21.024;2022-08-19T06:35:07;100125.38;;;24.51;58.36
22031;BME280;11179;52.106;21.024;2022-08-19T06:37:32;100126.31;;;24.55;58.16
22031;BME280;11179;52.106;21.024;2022-08-19T06:39:58;100133.50;;;24.69;58.10
22031;BME280;11179;52.106;21.024;2022-08-19T06:42:23;100131.72;;;24.76;58.15
22031;BME280;11179;52.106;21.024;2022-08-19T06:44:49;100126.00;;;24.73;58.35
22031;BME280;11179;52.106;21.024;2022-08-19T06:47:19;100125.81;;;24.81;57.87
22031;BME280;11179;52.106;21.024;2022-08-19T06:49:45;100140.69;;;24.82;57.93
22031;BME280;11179;52.106;21.024;2022-08-19T06:52:11;100131.25;;;24.90;57.68
22031;BME280;11179;52.106;21.024;2022-08-19T06:54:40;100134.31;;;25.13;57.55
22031;BME280;11179;52.106;21.024;2022-08-19T06:57:07;100125.31;;;25.70;57.07
22031;BME280;11179;52.106;21.024;2022-08-19T06:59:34;100126.63;;;26.11;55.72
22031;BME280;11179;52.106;21.024;2022-08-19T07:02:03;100130.81;;;26.36;55.56
22031;BME280;11179;52.106;21.024;2022-08-19T07:04:31;100135.72;;;26.40;54.97
22031;BME280;11179;52.106;21.024;2022-08-19T07:07:00;100133.50;;;26.49;55.22
22031;BME280;11179;52.106;21.024;2022-08-19T07:09:26;100147.50;;;26.45;54.95
22031;BME280;11179;52.106;21.024;2022-08-19T07:11:53;100139.84;;;26.65;54.22
22031;BME280;11179;52.106;21.024;2022-08-19T07:14:21;100148.31;;;27.07;53.83
22031;BME280;11179;52.106;21.024;2022-08-19T07:16:48;100142.50;;;27.65;52.64
22031;BME280;11179;52.106;21.024;2022-08-19T07:19:15;100131.19;;;27.91;51.68
22031;BME280;11179;52.106;21.024;2022-08-19T07:21:40;100132.28;;;28.09;51.30
22031;BME280;11179;52.106;21.024;2022-08-19T07:24:06;100125.03;;;28.42;50.47
22031;BME280;11179;52.106;21.024;2022-08-19T07:26:40;100121.72;;;28.33;49.86
22031;BME280;11179;52.106;21.024;2022-08-19T07:29:06;100122.91;;;28.65;49.92
22031;BME280;11179;52.106;21.024;2022-08-19T07:31:32;100123.75;;;29.06;48.84
22031;BME280;11179;52.106;21.024;2022-08-19T07:34:04;100107.75;;;29.21;48.38
22031;BME280;11179;52.106;21.024;2022-08-19T07:36:34;100107.63;;;29.58;48.05
22031;BME280;11179;52.106;21.024;2022-08-19T07:39:03;100103.31;;;29.71;47.14
22031;BME280;11179;52.106;21.024;2022-08-19T07:41:29;100110.34;;;29.44;46.30
22031;BME280;11179;52.106;21.024;2022-08-19T07:43:57;100107.44;;;29.33;47.30
22031;BME280;11179;52.106;21.024;2022-08-19T07:46:23;100128.03;;;29.78;46.69
22031;BME280;11179;52.106;21.024;2022-08-19T07:48:49;100111.53;;;29.91;46.04
22031;BME280;11179;52.106;21.024;2022-08-19T07:51:20;100120.63;;;30.25;46.31
22031;BME280;11179;52.106;21.024;2022-08-19T07:53:47;100107.34;;;30.43;45.71
22031;BME280;11179;52.106;21.024;2022-08-19T07:56:13;100115.41;;;30.37;45.68
22031;BME280;11179;52.106;21.024;2022-08-19T07:58:41;100105.38;;;30.61;45.57
22031;BME280;11179;52.106;21.024;2022-08-19T08:01:11;100105.47;;;30.75;45.40
22031;BME280;11179;52.106;21.024;2022-08-19T08:03:37;100108.28;;;30.89;45.27
22031;BME280;11179;52.106;21.024;2022-08-19T08:06:21;100105.47;;;30.75;44.67
22031;BME280;11179;52.106;21.024;2022-08-19T08:09:06;100096.47;;;30.63;44.59
22031;BME280;11179;52.106;21.024;2022-08-19T08:12:08;100100.88;;;30.49;44.95
22031;BME280;11179;52.106;21.024;2022-08-19T08:17:08;100108.56;;;30.42;45.26
22031;BME280;11179;52.106;21.024;2022-08-19T08:19:34;100119.88;;;30.35;45.05
22031;BME280;11179;52.106;21.024;2022-08-19T08:22:00;100121.19;;;30.69;45.52
22031;BME280;11179;52.106;21.024;2022-08-19T08:24:30;100110.78;;;31.12;44.46
22031;BME280;11179;52.106;21.024;2022-08-19T08:26:57;100118.09;;;31.24;44.26
22031;BME280;11179;52.106;21.024;2022-08-19T08:29:25;100116.06;;;31.49;44.28
22031;BME280;11179;52.106;21.024;2022-08-19T08:31:51;100114.41;;;31.70;43.43
22031;BME280;11179;52.106;21.024;2022-08-19T08:34:16;100109.97;;;31.79;42.90
22031;BME280;11179;52.106;21.024;2022-08-19T08:36:44;100116.38;;;32.08;42.96
22031;BME280;11179;52.106;21.024;2022-08-19T08:39:19;100108.63;;;32.12;42.52
22031;BME280;11179;52.106;21.024;2022-08-19T08:42:20;100113.94;;;32.07;42.09
22031;BME280;11179;52.106;21.024;2022-08-19T08:44:58;100108.22;;;32.21;41.36
22031;BME280;11179;52.106;21.024;2022-08-19T08:47:25;100104.22;;;32.01;40.99
22031;BME280;11179;52.106;21.024;2022-08-19T08:50:03;100118.38;;;32.22;40.02
22031;BME280;11179;52.106;21.024;2022-08-19T08:52:33;100122.47;;;32.07;40.70
22031;BME280;11179;52.106;21.024;2022-08-19T08:55:07;100128.16;;;32.07;40.26
22031;BME280;11179;52.106;21.024;2022-08-19T08:57:50;100133.84;;;32.07;39.55
22031;BME280;11179;52.106;21.024;2022-08-19T09:02:48;100132.16;;;32.13;39.65
22031;BME280;11179;52.106;21.024;2022-08-19T09:05:13;100122.41;;;32.31;39.34
22031;BME280;11179;52.106;21.024;2022-08-19T09:07:46;100127.22;;;32.42;39.07
22031;BME280;11179;52.106;21.024;2022-08-19T09:15:48;100124.38;;;32.45;38.54
22031;BME280;11179;52.106;21.024;2022-08-19T09:18:16;100123.91;;;32.54;38.16
22031;BME280;11179;52.106;21.024;2022-08-19T09:20:41;100118.91;;;32.76;38.68
22031;BME280;11179;52.106;21.024;2022-08-19T09:23:07;100121.34;;;32.88;38.93
22031;BME280;11179;52.106;21.024;2022-08-19T09:25:33;100129.91;;;32.77;38.00
22031;BME280;11179;52.106;21.024;2022-08-19T09:28:00;100133.53;;;32.81;37.78
22031;BME280;11179;52.106;21.024;2022-08-19T09:30:31;100133.59;;;32.71;38.26
22031;BME280;11179;52.106;21.024;2022-08-19T09:32:57;100140.06;;;32.78;37.99
22031;BME280;11179;52.106;21.024;2022-08-19T09:35:24;100137.50;;;32.98;37.79
22031;BME280;11179;52.106;21.024;2022-08-19T09:37:51;100141.59;;;32.93;37.52
22031;BME280;11179;52.106;21.024;2022-08-19T09:40:17;100140.84;;;32.86;37.37
22031;BME280;11179;52.106;21.024;2022-08-19T09:42:44;100137.13;;;32.92;37.67
22031;BME280;11179;52.106;21.024;2022-08-19T09:45:12;100143.19;;;33.01;37.46
22031;BME280;11179;52.106;21.024;2022-08-19T09:47:38;100130.94;;;33.05;36.60
22031;BME280;11179;52.106;21.024;2022-08-19T09:50:05;100145.66;;;32.92;36.37
22031;BME280;11179;52.106;21.024;2022-08-19T09:52:31;100140.78;;;32.89;36.44
22031;BME280;11179;52.106;21.024;2022-08-19T09:54:56;100146.47;;;32.89;37.10
22031;BME280;11179;52.106;21.024;2022-08-19T09:57:22;100134.28;;;32.92;36.69
22031;BME280;11179;52.106;21.024;2022-08-19T09:59:47;100120.94;;;32.82;36.76
22031;BME280;11179;52.106;21.024;2022-08-19T10:02:13;100136.41;;;32.74;36.97
22031;BME280;11179;52.106;21.024;2022-08-19T10:04:38;100132.84;;;32.59;36.29
22031;BME280;11179;52.106;21.024;2022-08-19T10:07:23;100126.41;;;32.45;37.07
22031;BME280;11179;52.106;21.024;2022-08-19T10:09:48;100119.44;;;32.60;37.12
22031;BME280;11179;52.106;21.024;2022-08-19T10:12:13;100121.47;;;32.59;36.86
22031;BME280;11179;52.106;21.024;2022-08-19T10:14:40;100120.31;;;32.43;36.76
22031;BME280;11179;52.106;21.024;2022-08-19T10:17:06;100118.63;;;32.56;36.90
22031;BME280;11179;52.106;21.024;2022-08-19T10:19:31;100116.50;;;32.78;37.14
22031;BME280;11179;52.106;21.024;2022-08-19T10:22:03;100108.75;;;32.85;36.64
22031;BME280;11179;52.106;21.024;2022-08-19T10:24:28;100115.25;;;32.82;36.90
22031;BME280;11179;52.106;21.024;2022-08-19T10:26:56;100110.00;;;32.74;36.73
22031;BME280;11179;52.106;21.024;2022-08-19T10:29:21;100121.06;;;32.61;37.41
22031;BME280;11179;52.106;21.024;2022-08-19T10:31:47;100114.16;;;32.58;36.50
22031;BME280;11179;52.106;21.024;2022-08-19T10:34:12;100112.47;;;32.68;36.96
22031;BME280;11179;52.106;21.024;2022-08-19T10:36:38;100111.53;;;32.92;37.05
22031;BME280;11179;52.106;21.024;2022-08-19T10:39:06;100109.16;;;32.87;36.48
22031;BME280;11179;52.106;21.024;2022-08-19T10:41:36;100110.38;;;32.76;36.75
22031;BME280;11179;52.106;21.024;2022-08-19T10:44:05;100100.28;;;32.71;37.52
22031;BME280;11179;52.106;21.024;2022-08-19T10:46:33;100105.97;;;32.71;37.46
22031;BME280;11179;52.106;21.024;2022-08-19T10:49:04;100107.84;;;32.95;38.25
22031;BME280;11179;52.106;21.024;2022-08-19T10:51:31;100114.66;;;33.12;37.09
22031;BME280;11179;52.106;21.024;2022-08-19T10:54:16;100106.44;;;33.21;36.88
22031;BME280;11179;52.106;21.024;2022-08-19T10:56:42;100106.41;;;33.25;36.83
22031;BME280;11179;52.106;21.024;2022-08-19T10:59:19;100100.34;;;33.26;37.22
22031;BME280;11179;52.106;21.024;2022-08-19T11:01:45;100095.81;;;33.29;37.00
22031;BME280;11179;52.106;21.024;2022-08-19T11:04:12;100099.13;;;33.20;37.36
22031;BME280;11179;52.106;21.024;2022-08-19T11:06:41;100104.50;;;33.08;37.44
22031;BME280;11179;52.106;21.024;2022-08-19T11:09:09;100085.94;;;32.92;36.92
22031;BME280;11179;52.106;21.024;2022-08-19T11:11:35;100097.41;;;32.78;36.54
22031;BME280;11179;52.106;21.024;2022-08-19T11:14:07;100088.13;;;32.67;36.96
22031;BME280;11179;52.106;21.024;2022-08-19T11:16:33;100082.44;;;32.63;37.96
22031;BME280;11179;52.106;21.024;2022-08-19T11:18:59;100084.44;;;32.70;37.03
22031;BME280;11179;52.106;21.024;2022-08-19T11:21:27;100073.53;;;32.61;36.80
22031;BME280;11179;52.106;21.024;2022-08-19T11:23:56;100064.22;;;32.54;37.84
22031;BME280;11179;52.106;21.024;2022-08-19T11:26:23;100063.34;;;32.67;36.96
22031;BME280;11179;52.106;21.024;2022-08-19T11:28:49;100072.19;;;32.84;36.87
22031;BME280;11179;52.106;21.024;2022-08-19T11:31:22;100077.88;;;32.84;36.23
22031;BME280;11179;52.106;21.024;2022-08-19T11:33:47;100079.13;;;32.79;36.26
22031;BME280;11179;52.106;21.024;2022-08-19T11:36:16;100075.91;;;32.70;36.64
22031;BME280;11179;52.106;21.024;2022-08-19T11:38:44;100062.13;;;32.65;37.26
22031;BME280;11179;52.106;21.024;2022-08-19T11:41:10;100064.56;;;32.63;37.88
22031;BME280;11179;52.106;21.024;2022-08-19T11:43:36;100069.41;;;32.70;37.83
22031;BME280;11179;52.106;21.024;2022-08-19T11:46:13;100058.84;;;32.70;37.16
22031;BME280;11179;52.106;21.024;2022-08-19T11:48:39;100057.34;;;32.51;35.95
22031;BME280;11179;52.106;21.024;2022-08-19T11:51:08;100045.22;;;32.44;36.27
22031;BME280;11179;52.106;21.024;2022-08-19T11:53:35;100055.38;;;32.41;36.38
22031;BME280;11179;52.106;21.024;2022-08-19T11:56:02;100048.06;;;32.44;37.03
22031;BME280;11179;52.106;21.024;2022-08-19T11:58:27;100041.97;;;32.49;37.29
22031;BME280;11179;52.106;21.024;2022-08-19T12:00:54;100024.47;;;32.50;37.13
22031;BME280;11179;52.106;21.024;2022-08-19T12:03:19;100027.38;;;32.43;36.54
22031;BME280;11179;52.106;21.024;2022-08-19T12:05:45;100023.78;;;32.36;36.87
22031;BME280;11179;52.106;21.024;2022-08-19T12:08:11;100027.44;;;32.33;36.71
22031;BME280;11179;52.106;21.024;2022-08-19T12:10:38;100020.97;;;32.21;36.47
22031;BME280;11179;52.106;21.024;2022-08-19T12:13:04;100029.09;;;32.16;36.77
22031;BME280;11179;52.106;21.024;2022-08-19T12:15:30;100025.84;;;32.17;36.99
22031;BME280;11179;52.106;21.024;2022-08-19T12:17:56;100035.59;;;32.16;36.96
22031;BME280;11179;52.106;21.024;2022-08-19T12:20:23;100014.09;;;32.12;37.53
22031;BME280;11179;52.106;21.024;2022-08-19T12:22:49;100026.25;;;32.26;37.72
22031;BME280;11179;52.106;21.024;2022-08-19T12:25:15;100022.59;;;32.19;36.87
22031;BME280;11179;52.106;21.024;2022-08-19T12:27:41;100025.06;;;32.13;37.04
22031;BME280;11179;52.106;21.024;2022-08-19T12:30:08;100006.44;;;32.05;36.88
22031;BME280;11179;52.106;21.024;2022-08-19T12:32:34;100004.41;;;32.06;37.78
22031;BME280;11179;52.106;21.024;2022-08-19T12:34:59;99999.47;;;32.20;38.05
22031;BME280;11179;52.106;21.024;2022-08-19T12:37:26;99998.22;;;32.28;36.81
22031;BME280;11179;52.106;21.024;2022-08-19T12:39:51;100005.53;;;32.29;36.67
22031;BME280;11179;52.106;21.024;2022-08-19T12:42:16;99998.63;;;32.30;36.46
22031;BME280;11179;52.106;21.024;2022-08-19T12:44:43;99994.97;;;32.34;36.88
22031;BME280;11179;52.106;21.024;2022-08-19T12:47:11;99990.09;;;32.23;36.67
22031;BME280;11179;52.106;21.024;2022-08-19T12:49:37;99988.53;;;32.15;37.62
22031;BME280;11179;52.106;21.024;2022-08-19T12:52:07;99981.63;;;32.16;37.79
22031;BME280;11179;52.106;21.024;2022-08-19T12:54:34;99993.41;;;32.18;37.22